createdAt,value
2023-01-13T04:24:26.902Z,95166.00
2023-01-13T04:25:26.889Z,95166.00
2023-01-13T04:26:26.872Z,95162.00
2023-01-13T04:27:26.859Z,95164.00
2023-01-13T04:28:26.839Z,95162.00
2023-01-13T04:29:26.839Z,95164.00
2023-01-13T04:30:26.795Z,95164.00
2023-01-13T04:31:26.991Z,95160.00
2023-01-13T04:32:26.739Z,95158.00
2023-01-13T04:33:26.725Z,95154.00
2023-01-13T04:34:28.385Z,95152.00
2023-01-13T04:35:26.708Z,95154.00
2023-01-13T04:36:26.685Z,95158.00
2023-01-13T04:37:26.657Z,95160.00
2023-01-13T04:38:26.675Z,95158.00
2023-01-13T04:39:26.621Z,95156.00
2023-01-13T04:40:26.590Z,95154.00
2023-01-13T04:41:26.602Z,95150.00
2023-01-13T04:42:26.552Z,95150.00
2023-01-13T04:43:26.530Z,95148.00
2023-01-13T04:44:26.511Z,95150.00
2023-01-13T04:45:26.474Z,95148.00
2023-01-13T04:46:26.537Z,95146.00
2023-01-13T04:47:26.422Z,95138.00
2023-01-13T04:48:26.381Z,95136.00
2023-01-13T04:49:26.369Z,95146.00
2023-01-13T04:50:26.347Z,95148.00
2023-01-13T04:51:26.340Z,95146.00
2023-01-13T04:52:26.305Z,95150.00
2023-01-13T04:53:26.291Z,95150.00
2023-01-13T04:54:26.297Z,95154.00
2023-01-13T04:55:26.252Z,95162.00
2023-01-13T04:56:26.220Z,95164.00
2023-01-13T04:57:26.194Z,95164.00
2023-01-13T04:58:26.175Z,95164.00
2023-01-13T04:59:26.149Z,95160.00
2023-01-13T05:00:26.136Z,95162.00
2023-01-13T05:01:26.275Z,95166.00
2023-01-13T05:02:26.093Z,95168.00
2023-01-13T05:03:26.051Z,95166.00
2023-01-13T05:04:26.053Z,95162.00
2023-01-13T05:05:26.007Z,95158.00
2023-01-13T05:06:25.972Z,95150.00
2023-01-13T05:07:25.960Z,95156.00
2023-01-13T05:08:25.936Z,95156.00
2023-01-13T05:09:25.923Z,95158.00
2023-01-13T05:10:25.928Z,95156.00
2023-01-13T05:11:25.876Z,95160.00
2023-01-13T05:12:25.847Z,95160.00
2023-01-13T05:14:25.816Z,95150.00
2023-01-13T05:15:25.795Z,95150.00
2023-01-13T05:16:25.790Z,95148.00
2023-01-13T05:17:25.753Z,95148.00
2023-01-13T05:18:25.723Z,95150.00
2023-01-13T05:19:25.710Z,95150.00
2023-01-13T05:20:25.695Z,95150.00
2023-01-13T05:21:25.674Z,95146.00
2023-01-13T05:22:25.656Z,95138.00
2023-01-13T05:23:25.620Z,95150.00
2023-01-13T05:24:25.585Z,95148.00
2023-01-13T06:39:24.038Z,95075.00
2023-01-13T07:05:26.173Z,95103.00
2023-01-13T07:17:23.367Z,95079.00
2023-01-13T07:55:21.938Z,95067.00
2023-01-13T08:04:22.667Z,95069.00
2023-01-13T08:05:22.658Z,95073.00
2023-01-13T08:07:22.588Z,95075.00
2023-01-13T08:08:23.134Z,95077.00
2023-01-13T08:11:23.753Z,95077.00
2023-01-13T08:12:22.437Z,95077.00
2023-01-13T08:13:22.401Z,95077.00
2023-01-13T08:14:22.737Z,95077.00
2023-01-13T08:15:22.324Z,95079.00
2023-01-13T08:16:22.320Z,95073.00
2023-01-13T08:17:22.274Z,95073.00
2023-01-13T08:18:22.523Z,95065.00
2023-01-13T08:19:22.208Z,95063.00
2023-01-13T08:20:22.240Z,95060.00
2023-01-13T08:21:22.150Z,95060.00
2023-01-13T08:22:22.141Z,95061.00
2023-01-13T08:23:22.086Z,95067.00
2023-01-13T08:24:22.076Z,95067.00
2023-01-13T08:25:22.221Z,95071.00
2023-01-13T08:26:22.005Z,95071.00
2023-01-13T08:27:21.973Z,95073.00
2023-01-13T08:28:21.933Z,95071.00
2023-01-13T08:30:22.260Z,95069.00
2023-01-13T08:31:21.974Z,95071.00
2023-01-13T08:32:22.705Z,95071.00
2023-01-13T08:33:21.832Z,95075.00
2023-01-13T08:34:21.987Z,95075.00
2023-01-13T08:35:21.745Z,95075.00
2023-01-13T08:36:21.675Z,95077.00
2023-01-13T08:37:21.616Z,95077.00
2023-01-13T08:38:21.793Z,95077.00
2023-01-13T08:39:22.577Z,95079.00
2023-01-13T08:40:21.515Z,95077.00
2023-01-13T08:42:21.443Z,95081.00
2023-01-13T08:43:21.766Z,95089.00
2023-01-13T08:44:21.741Z,95087.00
2023-01-13T08:45:22.597Z,95087.00
2023-01-13T08:47:21.354Z,95089.00
2023-01-13T08:48:21.771Z,95087.00
2023-01-13T08:49:21.806Z,95087.00
2023-01-13T08:50:21.238Z,95089.00
2023-01-13T08:51:21.212Z,95093.00
2023-01-13T08:52:21.164Z,95097.00
2023-01-13T08:53:21.255Z,95105.00
2023-01-13T08:54:21.148Z,95097.00
2023-01-13T08:55:21.107Z,95097.00
2023-01-13T08:56:21.258Z,95097.00
2023-01-13T08:57:21.188Z,95097.00
2023-01-13T08:58:21.074Z,95101.00
2023-01-13T08:59:21.090Z,95103.00
2023-01-13T09:00:21.072Z,95107.00
2023-01-13T09:01:21.398Z,95109.00
2023-01-13T09:02:21.256Z,95109.00
2023-01-13T09:03:21.102Z,95113.00
2023-01-13T09:04:21.157Z,95109.00
2023-01-13T09:05:21.078Z,95107.00
2023-01-13T09:06:21.269Z,95105.00
2023-01-13T09:08:21.020Z,95109.00
2023-01-13T09:09:20.999Z,95107.00
2023-01-13T09:10:20.994Z,95111.00
2023-01-13T09:11:20.997Z,95109.00
2023-01-13T09:12:20.950Z,95107.00
2023-01-13T09:13:20.937Z,95107.00
2023-01-13T09:14:21.317Z,95107.00
2023-01-13T09:15:20.911Z,95109.00
2023-01-13T09:16:20.942Z,95107.00
2023-01-13T09:17:20.892Z,95103.00
2023-01-13T09:18:20.857Z,95099.00
2023-01-13T09:19:20.814Z,95097.00
2023-01-13T09:20:21.264Z,95091.00
2023-01-13T09:21:20.779Z,95095.00
2023-01-13T09:22:20.770Z,95093.00
2023-01-13T09:23:20.732Z,95091.00
2023-01-13T09:24:20.733Z,95091.00
2023-01-13T09:25:20.764Z,95093.00
2023-01-13T09:26:20.704Z,95097.00
2023-01-13T09:27:20.633Z,95097.00
2023-01-13T09:28:20.608Z,95091.00
2023-01-13T09:29:20.599Z,95091.00
2023-01-13T09:30:20.780Z,95087.00
2023-01-13T09:31:20.707Z,95085.00
2023-01-13T09:32:20.508Z,95087.00
2023-01-13T09:33:20.488Z,95083.00
2023-01-13T09:34:20.473Z,95081.00
2023-01-13T09:35:20.420Z,95077.00
2023-01-13T09:36:20.388Z,95075.00
2023-01-13T09:37:20.777Z,95075.00
2023-01-13T09:38:20.322Z,95073.00
2023-01-13T09:39:21.271Z,95073.00
2023-01-13T09:40:20.286Z,95073.00
2023-01-13T09:41:20.261Z,95073.00
2023-01-13T09:42:20.327Z,95075.00
2023-01-13T09:43:20.254Z,95069.00
2023-01-13T09:44:20.268Z,95069.00
2023-01-13T09:45:20.243Z,95069.00
2023-01-13T09:46:20.305Z,95073.00
2023-01-13T09:47:20.272Z,95075.00
2023-01-13T09:48:20.219Z,95075.00
2023-01-13T09:49:20.229Z,95073.00
2023-01-13T09:50:20.212Z,95073.00
2023-01-13T09:51:20.307Z,95073.00
2023-01-13T09:52:20.195Z,95073.00
2023-01-13T09:53:20.189Z,95075.00
2023-01-13T09:54:20.170Z,95071.00
2023-01-13T09:55:20.171Z,95067.00
2023-01-13T09:56:20.288Z,95069.00
2023-01-13T09:57:20.281Z,95073.00
2023-01-13T09:58:20.144Z,95075.00
2023-01-13T09:59:20.114Z,95071.00
2023-01-13T10:00:20.190Z,95065.00
2023-01-13T10:01:20.174Z,95065.00
2023-01-13T10:02:20.291Z,95067.00
2023-01-13T10:03:20.077Z,95067.00
2023-01-13T10:04:20.089Z,95065.00
2023-01-13T10:05:20.293Z,95067.00
2023-01-13T10:06:19.909Z,95071.00
2023-01-13T10:07:21.144Z,95071.00
2023-01-13T10:08:19.847Z,95071.00
2023-01-13T10:09:19.790Z,95067.00
2023-01-13T10:10:20.368Z,95069.00
2023-01-13T10:11:19.737Z,95069.00
2023-01-13T10:12:20.782Z,95075.00
2023-01-13T10:13:19.677Z,95073.00
2023-01-13T10:14:19.665Z,95067.00
2023-01-13T10:15:19.642Z,95071.00
2023-01-13T10:16:19.736Z,95067.00
2023-01-13T10:17:19.965Z,95067.00
2023-01-13T10:18:19.590Z,95063.00
2023-01-13T10:19:19.471Z,95065.00
2023-01-13T10:20:19.519Z,95060.00
2023-01-13T10:21:19.407Z,95054.00
2023-01-13T10:22:19.402Z,95052.00
2023-01-13T10:23:19.331Z,95048.00
2023-01-13T10:24:19.301Z,95046.00
2023-01-13T10:25:19.768Z,95044.00
2023-01-13T10:26:19.312Z,95040.00
2023-01-13T10:27:19.196Z,95038.00
2023-01-13T10:28:19.448Z,95034.00
2023-01-13T10:29:19.111Z,95036.00
2023-01-13T10:30:19.463Z,95034.00
2023-01-13T10:32:18.965Z,95034.00
2023-01-13T10:33:18.930Z,95026.00
2023-01-13T10:34:18.895Z,95024.00
2023-01-13T10:35:19.275Z,95026.00
2023-01-13T10:36:18.818Z,95024.00
2023-01-13T10:37:18.807Z,95022.00
2023-01-13T10:38:18.868Z,95018.00
2023-01-13T10:39:18.698Z,95020.00
2023-01-13T10:40:18.799Z,95014.00
2023-01-13T10:41:18.664Z,95016.00
2023-01-13T10:42:18.836Z,95018.00
2023-01-13T10:43:18.570Z,95018.00
2023-01-13T10:44:18.545Z,95014.00
2023-01-13T10:45:18.513Z,95013.00
2023-01-13T10:46:18.647Z,95009.00
2023-01-13T10:47:18.859Z,95003.00
2023-01-13T10:48:18.467Z,95001.00
2023-01-13T10:49:18.573Z,94999.00
2023-01-13T10:50:18.465Z,94999.00
2023-01-13T10:51:18.301Z,94997.00
2023-01-13T10:52:18.398Z,94997.00
2023-01-13T10:53:19.250Z,94999.00
2023-01-13T10:54:18.220Z,95001.00
2023-01-13T10:55:19.328Z,94997.00
2023-01-13T10:56:18.312Z,94999.00
2023-01-13T10:57:18.156Z,94999.00
2023-01-13T10:58:18.426Z,95001.00
2023-01-13T10:59:18.332Z,95001.00
2023-01-13T11:00:18.105Z,94999.00
2023-01-13T11:01:18.449Z,95001.00
2023-01-13T11:02:25.690Z,95001.00
2023-01-13T11:03:17.977Z,95003.00
2023-01-13T11:04:18.328Z,95003.00
2023-01-13T11:05:17.902Z,95007.00
2023-01-13T11:06:17.919Z,95005.00
2023-01-13T11:07:17.798Z,94995.00
2023-01-13T11:08:18.688Z,94985.00
2023-01-13T11:09:17.764Z,94977.00
2023-01-13T11:10:17.746Z,94979.00
2023-01-13T11:11:17.738Z,94981.00
2023-01-13T11:12:17.913Z,94983.00
2023-01-13T11:13:17.820Z,94987.00
2023-01-13T11:14:17.795Z,94983.00
2023-01-13T11:15:17.703Z,94981.00
2023-01-13T11:16:17.771Z,94977.00
2023-01-13T11:17:17.811Z,94987.00
2023-01-13T11:18:17.653Z,94991.00
2023-01-13T11:19:17.621Z,94993.00
2023-01-13T11:20:17.600Z,94987.00
2023-01-13T11:21:17.554Z,94981.00
2023-01-13T11:22:17.805Z,94987.00
2023-01-13T11:23:17.874Z,94979.00
2023-01-13T11:24:17.464Z,94975.00
2023-01-13T11:25:17.460Z,94975.00
2023-01-13T11:26:17.387Z,94975.00
2023-01-13T11:27:17.359Z,94977.00
2023-01-13T11:28:17.345Z,94966.00
2023-01-13T11:29:17.830Z,94966.00
2023-01-13T11:30:17.337Z,94966.00
2023-01-13T11:31:17.360Z,94964.00
2023-01-13T11:32:17.328Z,94962.00
2023-01-13T11:33:17.317Z,94966.00
2023-01-13T11:34:17.333Z,94962.00
2023-01-13T11:35:17.303Z,94964.00
2023-01-13T11:36:20.157Z,94966.00
2023-01-13T11:37:17.814Z,94966.00
2023-01-13T11:38:17.467Z,94967.00
2023-01-13T11:39:17.328Z,94967.00
2023-01-13T11:40:17.249Z,94964.00
2023-01-13T11:41:17.296Z,94969.00
2023-01-13T11:42:17.233Z,94964.00
2023-01-13T11:43:17.208Z,94960.00
2023-01-13T11:44:17.194Z,94960.00
2023-01-13T11:45:17.178Z,94964.00
2023-01-13T11:46:17.201Z,94964.00
2023-01-13T11:47:17.292Z,94962.00
2023-01-13T11:48:17.081Z,94966.00
2023-01-13T11:49:17.070Z,94960.00
2023-01-13T11:50:17.069Z,94954.00
2023-01-13T11:51:17.004Z,94950.00
2023-01-13T11:52:17.315Z,94946.00
2023-01-13T11:53:16.969Z,94944.00
2023-01-13T11:54:17.297Z,94946.00
2023-01-13T11:55:16.986Z,94946.00
2023-01-13T11:56:16.926Z,94946.00
2023-01-13T11:57:16.879Z,94946.00
2023-01-13T11:58:16.879Z,94944.00
2023-01-13T11:59:16.837Z,94944.00
2023-01-13T12:00:16.816Z,94942.00
2023-01-13T12:01:16.799Z,94940.00
2023-01-13T12:02:16.787Z,94940.00
2023-01-13T12:03:16.862Z,94936.00
2023-01-13T12:04:16.868Z,94938.00
2023-01-13T12:05:16.638Z,94940.00
2023-01-13T12:06:16.689Z,94938.00
2023-01-13T12:07:16.586Z,94938.00
2023-01-13T12:08:16.569Z,94938.00
2023-01-13T12:09:16.673Z,94936.00
2023-01-13T12:10:16.804Z,94938.00
2023-01-13T12:11:16.544Z,94942.00
2023-01-13T12:12:16.455Z,94942.00
2023-01-13T12:13:16.426Z,94944.00
2023-01-13T12:14:16.840Z,94944.00
2023-01-13T12:15:16.407Z,94942.00
2023-01-13T12:16:16.417Z,94940.00
2023-01-13T12:17:16.329Z,94938.00
2023-01-13T12:18:16.313Z,94938.00
2023-01-13T12:19:16.304Z,94942.00
2023-01-13T12:20:16.320Z,94940.00
2023-01-13T12:21:16.252Z,94942.00
2023-01-13T12:22:16.261Z,94944.00
2023-01-13T12:23:16.191Z,94942.00
2023-01-13T12:24:16.227Z,94940.00
2023-01-13T12:25:16.311Z,94934.00
2023-01-13T12:26:16.732Z,94934.00
2023-01-13T12:27:16.132Z,94934.00
2023-01-13T12:28:16.172Z,94934.00
2023-01-13T12:29:16.104Z,94934.00
2023-01-13T12:30:16.074Z,94930.00
2023-01-13T12:31:16.102Z,94928.00
2023-01-13T12:32:16.045Z,94930.00
2023-01-13T12:33:18.008Z,94930.00
2023-01-13T12:34:16.317Z,94928.00
2023-01-13T12:35:15.982Z,94924.00
2023-01-13T12:36:15.970Z,94920.00
2023-01-13T12:37:15.943Z,94926.00
2023-01-13T12:38:15.953Z,94922.00
2023-01-13T12:39:15.887Z,94920.00
2023-01-13T12:40:16.312Z,94916.00
2023-01-13T12:41:15.857Z,94913.00
2023-01-13T12:42:15.836Z,94905.00
2023-01-13T12:43:15.819Z,94903.00
2023-01-13T12:44:15.805Z,94901.00
2023-01-13T12:45:17.340Z,94901.00
2023-01-13T12:46:15.825Z,94901.00
2023-01-13T12:47:15.736Z,94901.00
2023-01-13T12:48:15.713Z,94903.00
2023-01-13T12:49:15.720Z,94909.00
2023-01-13T12:50:15.655Z,94911.00
2023-01-13T12:51:18.166Z,94907.00
2023-01-13T12:52:15.608Z,94903.00
2023-01-13T12:53:15.567Z,94907.00
2023-01-13T12:54:15.623Z,94907.00
2023-01-13T12:55:15.538Z,94909.00
2023-01-13T12:56:15.508Z,94909.00
2023-01-13T12:57:15.491Z,94909.00
2023-01-13T12:58:15.463Z,94907.00
2023-01-13T12:59:15.451Z,94909.00
2023-01-13T13:00:15.825Z,94909.00
2023-01-13T13:01:15.506Z,94911.00
2023-01-13T13:02:15.592Z,94911.00
2023-01-13T13:03:17.753Z,94907.00
2023-01-13T13:04:15.334Z,94905.00
2023-01-13T13:05:15.321Z,94905.00
2023-01-13T13:06:15.337Z,94907.00
2023-01-13T13:07:15.243Z,94907.00
2023-01-13T13:08:15.330Z,94911.00
2023-01-13T13:09:15.195Z,94909.00
2023-01-13T13:10:15.191Z,94905.00
2023-01-13T13:11:15.331Z,94901.00
2023-01-13T13:12:15.109Z,94905.00
2023-01-13T13:13:15.346Z,94909.00
2023-01-13T13:14:15.050Z,94909.00
2023-01-13T13:15:15.073Z,94911.00
2023-01-13T13:16:15.020Z,94907.00
2023-01-13T13:17:14.953Z,94905.00
2023-01-13T13:18:14.920Z,94903.00
2023-01-13T13:19:15.328Z,94905.00
2023-01-13T13:20:14.872Z,94903.00
2023-01-13T13:21:14.839Z,94907.00
2023-01-13T13:22:14.817Z,94907.00
2023-01-13T13:23:14.827Z,94909.00
2023-01-13T13:24:14.834Z,94913.00
2023-01-13T13:25:14.738Z,94911.00
2023-01-13T13:26:14.744Z,94916.00
2023-01-13T13:27:14.686Z,94915.00
2023-01-13T13:28:14.665Z,94916.00
2023-01-13T13:29:14.653Z,94913.00
2023-01-13T13:30:14.683Z,94915.00
2023-01-13T13:31:14.711Z,94913.00
2023-01-13T13:32:14.587Z,94911.00
2023-01-13T13:33:14.602Z,94911.00
2023-01-13T13:34:14.548Z,94911.00
2023-01-13T13:35:14.836Z,94915.00
2023-01-13T13:36:14.500Z,94913.00
2023-01-13T13:37:14.473Z,94913.00
2023-01-13T13:38:14.444Z,94911.00
2023-01-13T13:39:14.428Z,94911.00
2023-01-13T13:40:14.396Z,94907.00
2023-01-13T13:41:14.405Z,94909.00
2023-01-13T13:42:14.381Z,94911.00
2023-01-13T13:43:14.327Z,94915.00
2023-01-13T13:44:14.336Z,94915.00
2023-01-13T13:45:14.310Z,94918.00
2023-01-13T13:46:14.299Z,94918.00
2023-01-13T13:47:14.246Z,94918.00
2023-01-13T13:48:14.221Z,94920.00
2023-01-13T13:49:14.220Z,94924.00
2023-01-13T13:50:14.336Z,94924.00
2023-01-13T13:51:14.157Z,94926.00
2023-01-13T13:52:14.379Z,94928.00
2023-01-13T13:53:14.105Z,94932.00
2023-01-13T13:54:14.064Z,94932.00
2023-01-13T13:55:14.339Z,94932.00
2023-01-13T13:56:14.012Z,94936.00
2023-01-13T13:57:13.990Z,94936.00
2023-01-13T13:58:14.366Z,94936.00
2023-01-13T13:59:13.933Z,94932.00
2023-01-13T14:00:13.919Z,94932.00
2023-01-13T14:01:14.076Z,94932.00
2023-01-13T14:02:14.417Z,94938.00
2023-01-13T14:03:13.853Z,94940.00
2023-01-13T14:04:13.820Z,94946.00
2023-01-13T14:05:13.797Z,94950.00
2023-01-13T14:06:13.766Z,94954.00
2023-01-13T14:07:14.344Z,94958.00
2023-01-13T14:08:13.693Z,94956.00
2023-01-13T14:09:13.668Z,94956.00
2023-01-13T14:10:13.663Z,94954.00
2023-01-13T14:11:13.609Z,94954.00
2023-01-13T14:12:13.584Z,94958.00
2023-01-13T14:13:13.553Z,94964.00
2023-01-13T14:14:13.564Z,94973.00
2023-01-13T14:15:13.502Z,94975.00
2023-01-13T14:16:13.487Z,94977.00
2023-01-13T14:17:13.425Z,94981.00
2023-01-13T14:18:13.403Z,94979.00
2023-01-13T14:19:13.371Z,94983.00
2023-01-13T14:20:13.344Z,94989.00
2023-01-13T14:21:13.317Z,94995.00
2023-01-13T14:22:13.295Z,94995.00
2023-01-13T14:23:13.265Z,94995.00
2023-01-13T14:24:13.236Z,94989.00
2023-01-13T14:25:13.218Z,94985.00
2023-01-13T14:26:13.215Z,94981.00
2023-01-13T14:27:13.181Z,94979.00
2023-01-13T14:28:13.155Z,94977.00
2023-01-13T14:29:13.114Z,94977.00
2023-01-13T14:30:13.118Z,94971.00
2023-01-13T14:31:13.101Z,94971.00
2023-01-13T14:32:13.354Z,94971.00
2023-01-13T14:33:13.068Z,94973.00
2023-01-13T14:34:31.084Z,94977.00
2023-01-13T14:35:12.976Z,94977.00
2023-01-13T14:36:13.007Z,94975.00
2023-01-13T14:37:13.289Z,94973.00
2023-01-13T14:38:12.917Z,94975.00
2023-01-13T14:39:12.893Z,94971.00
2023-01-13T14:40:12.885Z,94969.00
2023-01-13T14:41:12.859Z,94971.00
2023-01-13T14:42:13.296Z,94975.00
2023-01-13T14:43:12.836Z,94973.00
2023-01-13T14:44:12.813Z,94971.00
2023-01-13T14:45:12.767Z,94973.00
2023-01-13T14:46:12.806Z,94975.00
2023-01-13T14:47:12.720Z,94979.00
2023-01-13T14:48:12.699Z,94983.00
2023-01-13T14:49:12.663Z,94985.00
2023-01-13T14:50:12.826Z,94987.00
2023-01-13T14:51:12.621Z,94983.00
2023-01-13T14:52:12.604Z,94981.00
2023-01-13T14:53:12.578Z,94975.00
2023-01-13T14:54:12.583Z,94971.00
2023-01-13T14:55:12.554Z,94969.00
2023-01-13T14:56:12.506Z,94973.00
2023-01-13T14:57:12.490Z,94975.00
2023-01-13T14:58:12.483Z,94979.00
2023-01-13T14:59:12.455Z,94979.00
2023-01-13T15:00:12.791Z,94985.00
2023-01-13T15:01:12.544Z,94989.00
2023-01-13T15:02:12.427Z,94993.00
2023-01-13T15:03:12.371Z,94991.00
2023-01-13T15:04:12.309Z,94993.00
2023-01-13T15:05:12.273Z,94995.00
2023-01-13T15:06:12.273Z,94997.00
2023-01-13T15:07:12.313Z,94993.00
2023-01-13T15:08:12.280Z,94989.00
2023-01-13T15:09:12.183Z,94989.00
2023-01-13T15:10:12.166Z,94993.00
2023-01-13T15:11:12.137Z,94993.00
2023-01-13T15:12:12.083Z,94991.00
2023-01-13T15:13:12.050Z,94993.00
2023-01-13T15:14:12.010Z,94995.00
2023-01-13T15:15:11.975Z,94999.00
2023-01-13T15:16:11.980Z,94997.00
2023-01-13T15:17:11.908Z,94999.00
2023-01-13T15:18:11.940Z,95001.00
2023-01-13T15:19:11.857Z,95001.00
2023-01-13T15:20:11.827Z,95001.00
2023-01-13T15:21:11.802Z,94997.00
2023-01-13T15:22:11.761Z,94997.00
2023-01-13T15:23:11.769Z,95001.00
2023-01-13T15:24:11.705Z,95003.00
2023-01-13T15:25:11.672Z,95005.00
2023-01-13T15:26:11.647Z,95011.00
2023-01-13T15:27:11.615Z,95013.00
2023-01-13T15:28:11.794Z,95009.00
2023-01-13T15:29:11.569Z,95003.00
2023-01-13T15:30:11.534Z,95005.00
2023-01-13T15:31:11.583Z,95011.00
2023-01-13T15:32:11.489Z,95013.00
2023-01-13T15:33:11.467Z,95016.00
2023-01-13T15:34:11.445Z,95014.00
2023-01-13T15:35:12.795Z,95016.00
2023-01-13T15:36:11.367Z,95022.00
2023-01-13T15:37:11.338Z,95024.00
2023-01-13T15:38:11.361Z,95024.00
2023-01-13T15:39:11.285Z,95030.00
2023-01-13T15:40:11.247Z,95032.00
2023-01-13T15:41:12.249Z,95036.00
2023-01-13T15:42:11.194Z,95040.00
2023-01-13T15:43:11.184Z,95044.00
2023-01-13T15:44:11.142Z,95048.00
2023-01-13T15:45:11.161Z,95054.00
2023-01-13T15:46:11.140Z,95058.00
2023-01-13T15:47:11.060Z,95067.00
2023-01-13T15:48:11.045Z,95067.00
2023-01-13T15:49:11.023Z,95067.00
2023-01-13T15:50:11.036Z,95073.00
2023-01-13T15:51:10.988Z,95075.00
2023-01-13T15:52:10.959Z,95079.00
2023-01-13T15:53:10.945Z,95083.00
2023-01-13T15:54:10.925Z,95085.00
2023-01-13T15:55:10.899Z,95085.00
2023-01-13T15:56:10.888Z,95087.00
2023-01-13T15:57:10.853Z,95087.00
2023-01-13T15:58:10.843Z,95091.00
2023-01-13T15:59:10.818Z,95095.00
2023-01-13T16:00:10.800Z,95091.00
2023-01-13T16:01:10.854Z,95087.00
2023-01-13T16:02:10.765Z,95087.00
2023-01-13T16:03:10.789Z,95093.00
2023-01-13T16:04:10.712Z,95095.00
2023-01-13T16:05:10.692Z,95097.00
2023-01-13T16:06:10.689Z,95099.00
2023-01-13T16:07:10.626Z,95103.00
2023-01-13T16:08:10.605Z,95109.00
2023-01-13T16:09:10.618Z,95115.00
2023-01-13T16:10:10.576Z,95118.00
2023-01-13T16:11:10.554Z,95124.00
2023-01-13T16:12:10.539Z,95128.00
2023-01-13T16:13:10.512Z,95128.00
2023-01-13T16:14:10.524Z,95136.00
2023-01-13T16:15:10.468Z,95146.00
2023-01-13T16:16:10.504Z,95158.00
2023-01-13T16:17:10.423Z,95168.00
2023-01-13T16:18:10.400Z,95179.00
2023-01-13T16:19:10.373Z,95185.00
2023-01-13T16:20:10.351Z,95171.00
2023-01-13T16:21:10.325Z,95173.00
2023-01-13T16:22:10.322Z,95169.00
2023-01-13T16:23:10.281Z,95166.00
2023-01-13T16:24:10.271Z,95160.00
2023-01-13T16:25:10.238Z,95162.00
2023-01-13T16:26:10.220Z,95164.00
2023-01-13T16:27:10.203Z,95166.00
2023-01-13T16:28:11.710Z,95177.00
2023-01-13T16:29:10.206Z,95175.00
2023-01-13T16:30:10.191Z,95185.00
2023-01-13T16:31:10.194Z,95187.00
2023-01-13T16:32:10.163Z,95191.00
2023-01-13T16:33:10.155Z,95191.00
2023-01-13T16:34:10.105Z,95195.00
2023-01-13T16:35:10.079Z,95201.00
2023-01-13T16:36:12.037Z,95193.00
2023-01-13T16:37:10.028Z,95189.00
2023-01-13T16:38:10.044Z,95185.00
2023-01-13T16:39:09.993Z,95185.00
2023-01-13T16:40:09.973Z,95185.00
2023-01-13T16:41:09.943Z,95187.00
2023-01-13T16:42:09.929Z,95187.00
2023-01-13T16:43:09.899Z,95187.00
2023-01-13T16:44:09.865Z,95187.00
2023-01-13T16:45:09.847Z,95193.00
2023-01-13T16:46:09.880Z,95199.00
2023-01-13T16:47:09.811Z,95205.00
2023-01-13T16:48:09.847Z,95211.00
2023-01-13T16:49:09.781Z,95213.00
2023-01-13T16:50:09.749Z,95213.00
2023-01-13T16:51:09.722Z,95209.00
2023-01-13T16:52:09.690Z,95203.00
2023-01-13T16:53:09.674Z,95209.00
2023-01-13T16:54:09.685Z,95211.00
2023-01-13T16:55:09.639Z,95216.00
2023-01-13T16:56:09.609Z,95222.00
2023-01-13T16:57:09.586Z,95222.00
2023-01-13T16:58:09.549Z,95222.00
2023-01-13T16:59:09.533Z,95220.00
2023-01-13T17:00:09.507Z,95224.00
2023-01-13T17:01:09.548Z,95228.00
2023-01-13T17:02:09.438Z,95230.00
2023-01-13T17:03:09.491Z,95234.00
2023-01-13T17:04:09.401Z,95238.00
2023-01-13T17:05:09.363Z,95238.00
2023-01-13T17:06:09.337Z,95240.00
2023-01-13T17:07:09.308Z,95244.00
2023-01-13T17:08:09.294Z,95248.00
2023-01-13T17:09:09.247Z,95254.00
2023-01-13T17:10:09.239Z,95254.00
2023-01-13T17:11:09.192Z,95254.00
2023-01-13T17:12:09.177Z,95252.00
2023-01-13T17:13:15.974Z,95250.00
2023-01-13T17:14:18.810Z,95246.00
2023-01-13T17:15:09.104Z,95244.00
2023-01-13T17:16:09.080Z,95244.00
2023-01-13T17:17:09.022Z,95250.00
2023-01-13T17:18:09.037Z,95252.00
2023-01-13T17:19:08.976Z,95254.00
2023-01-13T17:20:08.982Z,95258.00
2023-01-13T17:21:08.939Z,95260.00
2023-01-13T17:22:08.936Z,95262.00
2023-01-13T17:23:08.934Z,95258.00
2023-01-13T17:24:08.878Z,95260.00
2023-01-13T17:25:08.861Z,95262.00
2023-01-13T17:26:08.864Z,95262.00
2023-01-13T17:27:08.807Z,95265.00
2023-01-13T17:28:08.776Z,95263.00
2023-01-13T17:29:08.753Z,95267.00
2023-01-13T17:30:08.757Z,95267.00
2023-01-13T17:31:08.737Z,95267.00
2023-01-13T17:32:08.684Z,95273.00
2023-01-13T17:33:08.660Z,95277.00
2023-01-13T17:34:08.633Z,95279.00
2023-01-13T17:35:08.624Z,95279.00
2023-01-13T17:36:08.615Z,95283.00
2023-01-13T17:37:08.590Z,95285.00
2023-01-13T17:38:08.573Z,95281.00
2023-01-13T17:39:08.549Z,95279.00
2023-01-13T17:40:08.539Z,95277.00
2023-01-13T17:41:08.508Z,95277.00
2023-01-13T17:42:08.521Z,95279.00
2023-01-13T17:43:08.498Z,95283.00
2023-01-13T17:44:08.465Z,95279.00
2023-01-13T17:45:08.432Z,95281.00
2023-01-13T17:46:08.489Z,95283.00
2023-01-13T17:47:08.395Z,95283.00
2023-01-13T17:48:08.461Z,95287.00
2023-01-13T17:49:08.356Z,95287.00
2023-01-13T17:50:08.341Z,95287.00
2023-01-13T17:51:08.310Z,95287.00
2023-01-13T17:52:08.292Z,95287.00
2023-01-13T17:53:08.258Z,95285.00
2023-01-13T17:54:08.238Z,95285.00
2023-01-13T17:55:08.219Z,95283.00
2023-01-13T17:56:08.198Z,95281.00
2023-01-13T17:57:08.200Z,95283.00
2023-01-13T17:58:08.186Z,95287.00
2023-01-13T17:59:10.124Z,95291.00
2023-01-13T18:00:08.117Z,95295.00
2023-01-13T18:01:08.225Z,95297.00
2023-01-13T18:02:08.213Z,95297.00
2023-01-13T18:03:08.057Z,95303.00
2023-01-13T18:04:08.040Z,95305.00
2023-01-13T18:05:08.032Z,95307.00
2023-01-13T18:06:08.031Z,95307.00
2023-01-13T18:07:07.980Z,95311.00
2023-01-13T18:08:07.966Z,95311.00
2023-01-13T18:09:07.948Z,95317.00
2023-01-13T18:10:07.928Z,95318.00
2023-01-13T18:11:07.916Z,95318.00
2023-01-13T18:12:07.910Z,95317.00
2023-01-13T18:13:07.876Z,95317.00
2023-01-13T18:14:07.884Z,95318.00
2023-01-13T18:15:07.831Z,95322.00
2023-01-13T18:16:07.840Z,95324.00
2023-01-13T18:17:07.809Z,95328.00
2023-01-13T18:18:07.775Z,95328.00
2023-01-13T18:19:07.752Z,95326.00
2023-01-13T18:20:07.736Z,95330.00
2023-01-13T18:21:07.725Z,95328.00
2023-01-13T18:22:07.697Z,95332.00
2023-01-13T18:23:07.681Z,95334.00
2023-01-13T18:24:07.650Z,95336.00
2023-01-13T18:25:07.630Z,95338.00
2023-01-13T18:26:07.616Z,95344.00
2023-01-13T18:27:07.592Z,95340.00
2023-01-13T18:28:07.560Z,95342.00
2023-01-13T18:29:07.533Z,95346.00
2023-01-13T18:30:07.567Z,95348.00
2023-01-13T18:31:07.548Z,95352.00
2023-01-13T18:32:07.479Z,95354.00
2023-01-13T18:33:07.471Z,95358.00
2023-01-13T18:34:07.449Z,95356.00
2023-01-13T18:35:07.441Z,95356.00
2023-01-13T18:36:07.409Z,95354.00
2023-01-13T18:37:07.395Z,95354.00
2023-01-13T18:38:07.377Z,95360.00
2023-01-13T18:39:07.364Z,95365.00
2023-01-13T18:40:07.337Z,95365.00
2023-01-13T18:41:07.319Z,95367.00
2023-01-13T18:42:07.300Z,95367.00
2023-01-13T18:43:07.288Z,95365.00
2023-01-13T18:44:07.266Z,95367.00
2023-01-13T18:45:07.253Z,95371.00
2023-01-13T18:46:07.308Z,95371.00
2023-01-13T18:47:07.222Z,95373.00
2023-01-13T18:48:07.203Z,95373.00
2023-01-13T18:49:07.169Z,95373.00
2023-01-13T18:50:07.152Z,95375.00
2023-01-13T18:51:07.111Z,95379.00
2023-01-13T18:52:07.091Z,95381.00